Time,TemperatureF,DewpointF,PressureIn,WindDirection,WindDirectionDegrees,WindSpeedMPH,WindSpeedGustMPH,Humidity,HourlyPrecipIn,Conditions,Clouds,dailyrainin,SoftwareType,DateUTC
2013-05-15 00:38:00,53.7,44.6,29.50,SW,225,0.0,0.0,71,0.00,,,0.00,WUHU21623XXSP,2013-05-15 04:38:00,
2013-05-15 01:38:00,52.5,44.9,29.44,South,180,6.5,6.5,75,0.00,,,0.00,WUHU21623XXSP,2013-05-15 05:38:00,
2013-05-15 02:38:00,52.1,45.5,29.38,South,180,6.3,6.3,78,0.00,,,0.00,WUHU21623XXSP,2013-05-15 06:38:00,
2013-05-15 03:38:00,53.5,47.2,29.35,SSE,158,0.0,0.0,79,0.00,,,0.00,WUHU21623XXSP,2013-05-15 07:38:00,
2013-05-15 04:38:00,55.0,48.3,29.32,South,180,6.7,6.7,78,0.00,,,0.00,WUHU21623XXSP,2013-05-15 08:38:00,
2013-05-15 05:38:00,55.9,49.5,29.31,South,180,4.5,4.5,79,0.00,,,0.00,WUHU21623XXSP,2013-05-15 09:38:00,
2013-05-15 06:38:00,57.3,52.2,29.32,SSW,203,2.9,2.9,83,0.00,,,0.00,WUHU21623XXSP,2013-05-15 10:38:00,
2013-05-15 07:38:00,63.6,55.3,29.36,SW,225,0.0,0.0,74,0.00,,,0.00,WUHU21623XXSP,2013-05-15 11:38:00,
2013-05-15 08:38:00,67.6,54.3,29.40,West,270,3.4,3.4,62,0.00,,,0.00,WUHU21623XXSP,2013-05-15 12:38:00,
2013-05-15 09:38:00,68.8,52.6,29.44,SSE,158,1.3,1.3,56,0.00,,,0.00,WUHU21623XXSP,2013-05-15 13:38:00,
2013-05-15 10:13:00,69.7,52.4,29.45,NNW,337,4.9,4.9,54,0.00,,,0.00,WUHU21623XXSP,2013-05-15 14:13:00,
2013-05-15 10:18:00,69.9,52.6,29.45,NNW,337,2.7,4.9,54,0.00,,,0.00,WUHU21623XXSP,2013-05-15 14:18:00,
2013-05-15 10:23:00,69.9,52.1,29.46,WSW,247,7.8,7.8,53,0.00,,,0.00,WUHU21623XXSP,2013-05-15 14:23:00,
2013-05-15 10:28:00,70.3,52.5,29.46,WNW,292,6.3,7.8,53,0.00,,,0.00,WUHU21623XXSP,2013-05-15 14:28:00,
2013-05-15 10:33:00,70.3,51.9,29.46,North,0,7.4,7.4,52,0.00,,,0.00,WUHU21623XXSP,2013-05-15 14:33:00,
2013-05-15 10:39:00,70.5,52.7,29.46,WSW,247,0.0,7.4,53,0.00,,,0.00,WUHU21623XXSP,2013-05-15 14:39:00,
2013-05-15 10:44:00,70.6,52.7,29.46,North,0,4.5,4.5,53,0.00,,,0.00,WUHU21623XXSP,2013-05-15 14:44:00,
2013-05-15 10:49:00,70.6,51.7,29.46,West,270,0.0,4.5,51,0.00,,,0.00,WUHU21623XXSP,2013-05-15 14:49:00,
2013-05-15 10:54:00,70.6,52.2,29.47,SSW,202,3.4,3.4,52,0.00,,,0.00,WUHU21623XXSP,2013-05-15 14:54:00,
2013-05-15 10:59:00,70.8,52.9,29.47,NW,315,7.2,7.2,53,0.00,,,0.00,WUHU21623XXSP,2013-05-15 14:59:00,
2013-05-15 11:04:00,71.2,53.3,29.47,SSE,157,0.0,7.2,53,0.00,,,0.00,WUHU21623XXSP,2013-05-15 15:04:00,
2013-05-15 11:11:00,71.7,52.7,29.47,West,270,0.0,0.0,51,0.00,,,0.00,WUHU21623XXSP,2013-05-15 15:11:00,
2013-05-15 11:16:00,71.7,52.7,29.48,WNW,292,0.0,0.0,51,0.00,,,0.00,WUHU21623XXSP,2013-05-15 15:16:00,
2013-05-15 11:21:00,72.1,53.1,29.48,WNW,292,5.8,5.8,51,0.00,,,0.00,WUHU21623XXSP,2013-05-15 15:21:00,
2013-05-15 11:26:00,72.1,52.5,29.48,WNW,292,6.0,6.0,50,0.00,,,0.00,WUHU21623XXSP,2013-05-15 15:26:00,
2013-05-15 11:31:00,72.3,53.2,29.48,WNW,292,0.0,6.0,51,0.00,,,0.00,WUHU21623XXSP,2013-05-15 15:31:00,
2013-05-15 11:41:00,72.6,53.0,29.49,North,0,8.7,8.7,50,0.00,,,0.00,WUHU21623XXSP,2013-05-15 15:41:00,
2013-05-15 11:46:00,72.6,53.0,29.49,WNW,292,0.0,8.7,50,0.00,,,0.00,WUHU21623XXSP,2013-05-15 15:46:00,
2013-05-15 11:51:00,72.8,53.1,29.49,NW,315,6.5,6.5,50,0.00,,,0.00,WUHU21623XXSP,2013-05-15 15:51:00,
2013-05-15 11:58:00,73.0,52.8,29.50,NNW,337,10.5,10.5,49,0.00,,,0.00,WUHU21623XXSP,2013-05-15 15:58:00,
2013-05-15 12:03:00,73.0,52.2,29.50,WNW,292,9.2,10.5,48,0.00,,,0.00,WUHU21623XXSP,2013-05-15 16:03:00,
2013-05-15 12:08:00,73.0,52.2,29.50,SW,225,0.0,9.2,48,0.00,,,0.00,WUHU21623XXSP,2013-05-15 16:08:00,
2013-05-15 12:13:00,73.0,52.2,29.51,WSW,247,6.5,6.5,48,0.00,,,0.00,WUHU21623XXSP,2013-05-15 16:13:00,
2013-05-15 12:18:00,73.3,51.9,29.51,West,270,6.7,6.9,47,0.00,,,0.00,WUHU21623XXSP,2013-05-15 16:18:00,
2013-05-15 12:23:00,73.3,52.5,29.51,NW,315,4.5,6.9,48,0.00,,,0.00,WUHU21623XXSP,2013-05-15 16:23:00,
2013-05-15 12:28:00,73.3,51.9,29.52,WNW,292,9.4,9.4,47,0.00,,,0.00,WUHU21623XXSP,2013-05-15 16:28:00,
2013-05-15 12:34:00,73.3,51.9,29.52,NNW,337,5.1,9.4,47,0.00,,,0.00,WUHU21623XXSP,2013-05-15 16:34:00,
2013-05-15 12:39:00,73.3,51.9,29.52,North,0,5.1,5.1,47,0.00,,,0.00,WUHU21623XXSP,2013-05-15 16:39:00,
2013-05-15 12:44:00,73.3,51.9,29.52,NNW,337,11.2,11.2,47,0.00,,,0.00,WUHU21623XXSP,2013-05-15 16:44:00,
2013-05-15 12:50:00,73.3,51.9,29.52,WNW,292,3.4,11.2,47,0.00,,,0.00,WUHU21623XXSP,2013-05-15 16:50:00,
2013-05-15 12:55:00,73.3,51.9,29.52,NNW,337,7.2,7.2,47,0.00,,,0.00,WUHU21623XXSP,2013-05-15 16:55:00,
2013-05-15 13:00:00,73.5,52.1,29.52,West,270,7.6,7.6,47,0.00,,,0.00,WUHU21623XXSP,2013-05-15 17:00:00,
2013-05-15 13:05:00,73.5,52.1,29.52,West,270,11.0,11.0,47,0.00,,,0.00,WUHU21623XXSP,2013-05-15 17:05:00,
2013-05-15 13:10:00,73.7,52.2,29.53,SSE,157,0.0,11.0,47,0.00,,,0.00,WUHU21623XXSP,2013-05-15 17:10:00,
2013-05-15 13:15:00,73.9,52.4,29.52,WNW,292,5.1,5.1,47,0.00,,,0.00,WUHU21623XXSP,2013-05-15 17:15:00,
2013-05-15 13:20:00,73.9,52.4,29.53,NNW,337,8.5,8.5,47,0.00,,,0.00,WUHU21623XXSP,2013-05-15 17:20:00,
2013-05-15 13:25:00,73.9,52.4,29.53,North,0,18.1,18.1,47,0.00,,,0.00,WUHU21623XXSP,2013-05-15 17:25:00,
2013-05-15 13:30:00,73.5,51.5,29.52,North,0,11.0,18.1,46,0.00,,,0.00,WUHU21623XXSP,2013-05-15 17:30:00,
2013-05-15 13:35:00,73.5,51.5,29.53,WNW,292,9.6,11.0,46,0.00,,,0.00,WUHU21623XXSP,2013-05-15 17:35:00,
2013-05-15 13:41:00,73.7,52.2,29.53,NW,315,0.0,9.6,47,0.00,,,0.00,WUHU21623XXSP,2013-05-15 17:41:00,
2013-05-15 13:47:00,74.2,52.1,29.53,West,270,0.0,8.7,46,0.00,,,0.00,WUHU21623XXSP,2013-05-15 17:47:00,
2013-05-15 13:53:00,74.2,52.1,29.53,NNW,337,13.0,13.0,46,0.00,,,0.00,WUHU21623XXSP,2013-05-15 17:53:00,
2013-05-15 13:58:00,74.4,52.3,29.53,NW,315,0.0,13.0,46,0.00,,,0.00,WUHU21623XXSP,2013-05-15 17:58:00,
2013-05-15 14:03:00,74.4,52.3,29.53,WSW,247,5.1,13.0,46,0.00,,,0.00,WUHU21623XXSP,2013-05-15 18:03:00,
2013-05-15 14:08:00,74.6,52.5,29.53,WSW,247,8.3,8.3,46,0.00,,,0.00,WUHU21623XXSP,2013-05-15 18:08:00,
2013-05-15 14:14:00,74.8,52.6,29.53,West,270,0.0,8.3,46,0.00,,,0.00,WUHU21623XXSP,2013-05-15 18:14:00,
2013-05-15 14:19:00,75.1,52.3,29.53,WSW,247,7.4,7.4,45,0.00,,,0.00,WUHU21623XXSP,2013-05-15 18:19:00,
2013-05-15 14:24:00,75.1,51.0,29.54,NNW,337,2.5,7.4,43,0.00,,,0.00,WUHU21623XXSP,2013-05-15 18:24:00,
2013-05-15 14:30:00,75.3,51.2,29.53,WNW,292,8.3,8.3,43,0.00,,,0.00,WUHU21623XXSP,2013-05-15 18:30:00,
2013-05-15 14:35:00,75.3,51.2,29.52,NNW,337,5.8,8.3,43,0.00,,,0.00,WUHU21623XXSP,2013-05-15 18:35:00,
2013-05-15 14:40:00,75.3,49.9,29.52,West,270,5.8,8.3,41,0.00,,,0.00,WUHU21623XXSP,2013-05-15 18:40:00,
2013-05-15 14:45:00,75.3,50.6,29.53,NW,315,0.0,5.8,42,0.00,,,0.00,WUHU21623XXSP,2013-05-15 18:45:00,
2013-05-15 14:50:00,75.3,50.6,29.52,NNW,337,2.5,2.5,42,0.00,,,0.00,WUHU21623XXSP,2013-05-15 18:50:00,
2013-05-15 14:55:00,75.3,50.6,29.53,WSW,247,6.3,6.3,42,0.00,,,0.00,WUHU21623XXSP,2013-05-15 18:55:00,
2013-05-15 15:00:00,75.5,51.4,29.53,NNW,337,17.9,17.9,43,0.00,,,0.00,WUHU21623XXSP,2013-05-15 19:00:00,
2013-05-15 15:05:00,75.5,50.1,29.53,NNW,337,0.0,17.9,41,0.00,,,0.00,WUHU21623XXSP,2013-05-15 19:05:00,
2013-05-15 15:11:00,75.7,50.3,29.53,NW,315,3.4,3.4,41,0.00,,,0.00,WUHU21623XXSP,2013-05-15 19:11:00,
2013-05-15 15:16:00,75.7,50.3,29.53,WNW,292,9.6,9.6,41,0.00,,,0.00,WUHU21623XXSP,2013-05-15 19:16:00,
2013-05-15 15:21:00,75.9,49.1,29.53,North,0,10.7,10.7,39,0.00,,,0.00,WUHU21623XXSP,2013-05-15 19:21:00,
2013-05-15 15:26:00,75.7,49.6,29.53,NW,315,11.0,11.0,40,0.00,,,0.00,WUHU21623XXSP,2013-05-15 19:26:00,
2013-05-15 15:31:00,75.7,48.2,29.53,NNW,337,9.4,11.0,38,0.00,,,0.00,WUHU21623XXSP,2013-05-15 19:31:00,
2013-05-15 15:36:00,75.7,48.2,29.52,NNE,22,0.0,9.4,38,0.00,,,0.00,WUHU21623XXSP,2013-05-15 19:36:00,
2013-05-15 15:41:00,75.9,48.3,29.52,NW,315,2.7,2.7,38,0.00,,,0.00,WUHU21623XXSP,2013-05-15 19:41:00,
2013-05-15 15:46:00,75.9,48.3,29.52,NNW,337,6.9,6.9,38,0.00,,,0.00,WUHU21623XXSP,2013-05-15 19:46:00,
2013-05-15 15:51:00,76.0,49.1,29.52,SSW,202,0.0,6.9,39,0.00,,,0.00,WUHU21623XXSP,2013-05-15 19:51:00,
2013-05-15 15:56:00,76.0,49.1,29.52,WNW,292,0.0,4.7,39,0.00,,,0.00,WUHU21623XXSP,2013-05-15 19:56:00,
2013-05-15 16:01:00,76.2,49.3,29.52,NNW,337,12.5,12.5,39,0.00,,,0.00,WUHU21623XXSP,2013-05-15 20:01:00,
2013-05-15 16:06:00,76.4,48.8,29.52,SE,135,0.0,12.5,38,0.00,,,0.00,WUHU21623XXSP,2013-05-15 20:06:00,
2013-05-15 16:11:00,76.6,48.2,29.52,West,270,0.0,1.1,37,0.00,,,0.00,WUHU21623XXSP,2013-05-15 20:11:00,
2013-05-15 16:17:00,76.6,48.2,29.52,West,270,4.5,4.5,37,0.00,,,0.00,WUHU21623XXSP,2013-05-15 20:17:00,
2013-05-15 16:22:00,76.8,47.7,29.52,West,270,10.3,10.3,36,0.00,,,0.00,WUHU21623XXSP,2013-05-15 20:22:00,
2013-05-15 16:28:00,76.6,46.7,29.52,North,0,11.2,11.2,35,0.00,,,0.00,WUHU21623XXSP,2013-05-15 20:28:00,
2013-05-15 16:33:00,76.6,46.7,29.52,NW,315,0.9,11.2,35,0.00,,,0.00,WUHU21623XXSP,2013-05-15 20:33:00,
2013-05-15 16:38:00,76.4,45.0,29.52,NW,315,8.3,8.3,33,0.00,,,0.00,WUHU21623XXSP,2013-05-15 20:38:00,
2013-05-15 16:43:00,76.4,46.6,29.52,West,270,0.0,8.3,35,0.00,,,0.00,WUHU21623XXSP,2013-05-15 20:43:00,
2013-05-15 16:48:00,76.6,46.7,29.52,West,270,4.5,4.5,35,0.00,,,0.00,WUHU21623XXSP,2013-05-15 20:48:00,
2013-05-15 16:53:00,76.6,46.7,29.52,WNW,292,0.0,4.5,35,0.00,,,0.00,WUHU21623XXSP,2013-05-15 20:53:00,
2013-05-15 16:59:00,76.6,46.7,29.52,West,270,0.0,0.0,35,0.00,,,0.00,WUHU21623XXSP,2013-05-15 20:59:00,
2013-05-15 17:04:00,76.6,46.7,29.52,NNW,337,0.0,0.0,35,0.00,,,0.00,WUHU21623XXSP,2013-05-15 21:04:00,
2013-05-15 17:09:00,76.6,46.7,29.52,NNW,337,0.0,0.0,35,0.00,,,0.00,WUHU21623XXSP,2013-05-15 21:09:00,
2013-05-15 17:14:00,76.6,46.7,29.52,NW,315,8.3,8.3,35,0.00,,,0.00,WUHU21623XXSP,2013-05-15 21:14:00,
2013-05-15 17:19:00,76.6,47.5,29.52,West,270,6.5,8.3,36,0.00,,,0.00,WUHU21623XXSP,2013-05-15 21:19:00,
2013-05-15 17:24:00,76.6,47.5,29.52,NW,315,5.1,6.5,36,0.00,,,0.00,WUHU21623XXSP,2013-05-15 21:24:00,
2013-05-15 17:30:00,76.9,47.8,29.52,WNW,292,3.1,6.7,36,0.00,,,0.00,WUHU21623XXSP,2013-05-15 21:30:00,
2013-05-15 17:35:00,76.6,47.5,29.52,WNW,292,0.0,6.7,36,0.00,,,0.00,WUHU21623XXSP,2013-05-15 21:35:00,
2013-05-15 17:40:00,76.6,47.5,29.52,NW,315,0.0,0.0,36,0.00,,,0.00,WUHU21623XXSP,2013-05-15 21:40:00,
2013-05-15 17:45:00,76.8,47.7,29.52,West,270,0.0,0.0,36,0.00,,,0.00,WUHU21623XXSP,2013-05-15 21:45:00,
2013-05-15 17:50:00,76.6,47.5,29.52,West,270,0.0,0.0,36,0.00,,,0.00,WUHU21623XXSP,2013-05-15 21:50:00,
2013-05-15 17:57:00,76.9,47.0,29.52,West,270,6.3,6.3,35,0.00,,,0.00,WUHU21623XXSP,2013-05-15 21:57:00,
2013-05-15 18:02:00,76.9,46.2,29.53,WSW,247,0.0,6.3,34,0.00,,,0.00,WUHU21623XXSP,2013-05-15 22:02:00,
2013-05-15 18:08:00,76.9,45.4,29.53,NW,315,0.0,0.0,33,0.00,,,0.00,WUHU21623XXSP,2013-05-15 22:08:00,
2013-05-15 18:13:00,76.8,46.9,29.53,WNW,292,4.5,4.5,35,0.00,,,0.00,WUHU21623XXSP,2013-05-15 22:13:00,
2013-05-15 18:18:00,76.6,46.7,29.52,WSW,247,6.5,6.5,35,0.00,,,0.00,WUHU21623XXSP,2013-05-15 22:18:00,
2013-05-15 18:23:00,76.4,45.8,29.53,SSE,157,0.0,6.5,34,0.00,,,0.00,WUHU21623XXSP,2013-05-15 22:23:00,
2013-05-15 18:28:00,76.0,44.7,29.52,WSW,247,0.0,0.0,33,0.00,,,0.00,WUHU21623XXSP,2013-05-15 22:28:00,
2013-05-15 18:33:00,75.5,45.0,29.52,WNW,292,4.0,4.0,34,0.00,,,0.00,WUHU21623XXSP,2013-05-15 22:33:00,
2013-05-15 18:40:00,75.1,45.4,29.52,WNW,292,5.1,5.1,35,0.00,,,0.00,WUHU21623XXSP,2013-05-15 22:40:00,
2013-05-15 18:46:00,75.0,43.8,29.52,NNW,337,2.5,5.1,33,0.00,,,0.00,WUHU21623XXSP,2013-05-15 22:46:00,
2013-05-15 18:51:00,74.8,42.8,29.52,WNW,292,0.0,2.5,32,0.00,,,0.00,WUHU21623XXSP,2013-05-15 22:51:00,
2013-05-15 18:57:00,74.2,43.1,29.52,WNW,292,0.0,0.0,33,0.00,,,0.00,WUHU21623XXSP,2013-05-15 22:57:00,
2013-05-15 19:02:00,74.1,43.0,29.52,West,270,1.3,1.3,33,0.00,,,0.00,WUHU21623XXSP,2013-05-15 23:02:00,
2013-05-15 19:07:00,73.9,42.0,29.53,NW,315,6.9,6.9,32,0.00,,,0.00,WUHU21623XXSP,2013-05-15 23:07:00,
2013-05-15 19:12:00,73.7,41.8,29.54,SSE,157,0.0,6.9,32,0.00,,,0.00,WUHU21623XXSP,2013-05-15 23:12:00,
2013-05-15 19:17:00,73.3,41.5,29.53,NNW,337,4.5,4.5,32,0.00,,,0.00,WUHU21623XXSP,2013-05-15 23:17:00,
2013-05-15 19:27:00,72.6,40.9,29.54,NW,315,0.0,0.0,32,0.00,,,0.00,WUHU21623XXSP,2013-05-15 23:27:00,
2013-05-15 19:32:00,72.6,41.7,29.55,WSW,247,3.8,3.8,33,0.00,,,0.00,WUHU21623XXSP,2013-05-15 23:32:00,
2013-05-15 19:37:00,72.4,40.7,29.55,NNW,337,3.8,3.8,32,0.00,,,0.00,WUHU21623XXSP,2013-05-15 23:37:00,
2013-05-15 19:42:00,72.3,41.4,29.55,WNW,292,0.0,3.8,33,0.00,,,0.00,WUHU21623XXSP,2013-05-15 23:42:00,
2013-05-15 19:47:00,72.1,42.0,29.55,NW,315,0.0,2.9,34,0.00,,,0.00,WUHU21623XXSP,2013-05-15 23:47:00,
2013-05-15 19:53:00,71.7,40.9,29.53,NW,315,0.0,0.0,33,0.00,,,0.00,WUHU21623XXSP,2013-05-15 23:53:00,
2013-05-15 19:58:00,71.5,41.5,29.54,NW,315,0.0,0.0,34,0.00,,,0.00,WUHU21623XXSP,2013-05-15 23:58:00,
2013-05-15 20:03:00,71.2,41.2,29.55,West,270,0.0,0.0,34,0.00,,,0.00,WUHU21623XXSP,2013-05-16 00:03:00,
2013-05-15 20:08:00,71.0,41.0,29.55,WNW,292,0.0,0.0,34,0.00,,,0.00,WUHU21623XXSP,2013-05-16 00:08:00,
2013-05-15 20:13:00,70.8,40.9,29.55,NW,315,0.0,0.0,34,0.00,,,0.00,WUHU21623XXSP,2013-05-16 00:13:00,
2013-05-15 20:18:00,70.3,41.2,29.55,West,270,0.0,0.0,35,0.00,,,0.00,WUHU21623XXSP,2013-05-16 00:18:00,
2013-05-15 20:23:00,70.3,41.9,29.55,West,270,0.0,0.0,36,0.00,,,0.00,WUHU21623XXSP,2013-05-16 00:23:00,
2013-05-15 20:28:00,69.9,40.8,29.56,NW,315,0.0,0.0,35,0.00,,,0.00,WUHU21623XXSP,2013-05-16 00:28:00,
2013-05-15 20:35:00,69.7,41.4,29.55,NNW,337,0.0,0.0,36,0.00,,,0.00,WUHU21623XXSP,2013-05-16 00:35:00,
2013-05-15 20:40:00,69.6,41.3,29.55,NNW,337,3.1,3.1,36,0.00,,,0.00,WUHU21623XXSP,2013-05-16 00:40:00,
2013-05-15 20:46:00,69.2,41.7,29.55,WNW,292,0.0,3.1,37,0.00,,,0.00,WUHU21623XXSP,2013-05-16 00:46:00,
2013-05-15 20:51:00,69.2,41.7,29.55,NNW,337,0.0,0.0,37,0.00,,,0.00,WUHU21623XXSP,2013-05-16 00:51:00,
2013-05-15 20:56:00,69.2,41.7,29.55,NNW,337,0.0,0.0,37,0.00,,,0.00,WUHU21623XXSP,2013-05-16 00:56:00,
2013-05-15 21:01:00,69.0,41.5,29.55,WNW,292,8.1,8.1,37,0.00,,,0.00,WUHU21623XXSP,2013-05-16 01:01:00,
2013-05-15 21:06:00,68.8,41.3,29.55,North,0,0.0,8.1,37,0.00,,,0.00,WUHU21623XXSP,2013-05-16 01:06:00,
2013-05-15 21:11:00,68.8,42.0,29.55,North,0,0.0,0.0,38,0.00,,,0.00,WUHU21623XXSP,2013-05-16 01:11:00,
2013-05-15 21:17:00,68.5,42.4,29.56,NW,315,4.9,4.9,39,0.00,,,0.00,WUHU21623XXSP,2013-05-16 01:17:00,
2013-05-15 21:22:00,68.3,42.2,29.55,West,270,0.0,4.9,39,0.00,,,0.00,WUHU21623XXSP,2013-05-16 01:22:00,
2013-05-15 21:27:00,68.1,42.7,29.56,WNW,292,0.0,0.0,40,0.00,,,0.00,WUHU21623XXSP,2013-05-16 01:27:00,
2013-05-15 21:32:00,67.9,42.6,29.57,WSW,247,0.0,0.0,40,0.00,,,0.00,WUHU21623XXSP,2013-05-16 01:32:00,
2013-05-15 21:37:00,67.6,42.3,29.57,West,270,0.0,0.0,40,0.00,,,0.00,WUHU21623XXSP,2013-05-16 01:37:00,
2013-05-15 21:42:00,67.4,42.8,29.57,West,270,0.0,0.0,41,0.00,,,0.00,WUHU21623XXSP,2013-05-16 01:42:00,
2013-05-15 21:47:00,66.7,42.8,29.57,West,270,0.0,0.0,42,0.00,,,0.00,WUHU21623XXSP,2013-05-16 01:47:00,
2013-05-15 21:52:00,66.7,42.8,29.57,West,270,0.0,0.0,42,0.00,,,0.00,WUHU21623XXSP,2013-05-16 01:52:00,
2013-05-15 21:58:00,66.1,42.9,29.58,West,270,0.0,0.0,43,0.00,,,0.00,WUHU21623XXSP,2013-05-16 01:58:00,
2013-05-15 22:03:00,65.4,42.2,29.58,West,270,0.0,0.0,43,0.00,,,0.00,WUHU21623XXSP,2013-05-16 02:03:00,
2013-05-15 22:08:00,64.5,42.0,29.58,West,270,0.0,0.0,44,0.00,,,0.00,WUHU21623XXSP,2013-05-16 02:08:00,
2013-05-15 22:14:00,64.3,42.4,29.58,West,270,0.0,0.0,45,0.00,,,0.00,WUHU21623XXSP,2013-05-16 02:14:00,
2013-05-15 22:19:00,63.8,42.6,29.58,West,270,0.0,0.0,46,0.00,,,0.00,WUHU21623XXSP,2013-05-16 02:19:00,
2013-05-15 22:24:00,63.6,42.4,29.58,West,270,0.0,0.0,46,0.00,,,0.00,WUHU21623XXSP,2013-05-16 02:24:00,
2013-05-15 22:29:00,63.1,42.5,29.58,West,270,0.0,0.0,47,0.00,,,0.00,WUHU21623XXSP,2013-05-16 02:29:00,
2013-05-15 22:34:00,62.7,42.1,29.59,West,270,0.0,0.0,47,0.00,,,0.00,WUHU21623XXSP,2013-05-16 02:34:00,
2013-05-15 22:40:00,62.5,42.5,29.59,West,270,0.0,0.0,48,0.00,,,0.00,WUHU21623XXSP,2013-05-16 02:40:00,
2013-05-15 22:46:00,61.6,42.2,29.58,West,270,0.0,0.0,49,0.00,,,0.00,WUHU21623XXSP,2013-05-16 02:46:00,
2013-05-15 22:51:00,61.5,42.2,29.58,WNW,292,0.0,0.0,49,0.00,,,0.00,WUHU21623XXSP,2013-05-16 02:51:00,
2013-05-15 22:56:00,61.1,42.3,29.58,WNW,292,0.0,0.0,50,0.00,,,0.00,WUHU21623XXSP,2013-05-16 02:56:00,
2013-05-15 23:01:00,60.9,42.1,29.59,WNW,292,0.0,0.0,50,0.00,,,0.00,WUHU21623XXSP,2013-05-16 03:01:00,
2013-05-15 23:06:00,60.4,41.7,29.59,WNW,292,0.0,0.0,50,0.00,,,0.00,WUHU21623XXSP,2013-05-16 03:06:00,
2013-05-15 23:11:00,60.0,41.8,29.59,WNW,292,0.0,0.0,51,0.00,,,0.00,WUHU21623XXSP,2013-05-16 03:11:00,
2013-05-15 23:38:00,58.0,42.0,29.59,WNW,293,0.0,0.0,55,0.00,,,0.00,WUHU21623XXSP,2013-05-16 03:38:00,